Terminal Aerodrome Forecast
Issued by NWS Greer, SC

Home | Current Version | Previous Version | Text Only | Print | Product List | Glossary On
Versions: 1 2 3 4 5 6 7 8 9 10 11 12 13 14 15 16 17 18 19 20
000
FTUS42 KGSP 250531
TAFAVL
TAF
KAVL 250531Z 2506/2606 00000KT P6SM FEW250
      TEMPO 2508/2512 00000KT 4SM BR SCT005
     FM251300 33003KT P6SM FEW050
     FM252000 23006KT P6SM VCSH BKN040 PROB30 2520/2524 4SM -TSRA
      OVC025CB
     FM260000 29003KT P6SM BKN070
     FM260500 00000KT P6SM SCT090=

USA.gov is the U.S. government's official web portal to all federal, state and local government web resources and services.